createdAt,value
2023-04-20T00:02:21.712Z,8.20
2023-04-20T00:04:48.900Z,5.90
2023-04-20T00:07:16.767Z,5.80
2023-04-20T00:09:43.665Z,5.80
2023-04-20T00:12:10.571Z,5.80
2023-04-20T00:14:37.481Z,5.80
2023-04-20T00:17:04.398Z,5.80
2023-04-20T00:19:33.343Z,5.80
2023-04-20T00:22:00.586Z,8.00
2023-04-20T00:24:27.573Z,5.80
2023-04-20T00:26:55.067Z,5.80
2023-04-20T00:29:22.014Z,5.90
2023-04-20T00:34:16.363Z,5.80
2023-04-20T00:36:43.272Z,5.80
2023-04-20T00:39:10.514Z,5.80
2023-04-20T00:41:37.363Z,5.70
2023-04-20T00:44:04.328Z,7.70
2023-04-20T00:46:31.241Z,7.00
2023-04-20T00:48:58.123Z,5.70
2023-04-20T00:51:27.650Z,6.70
2023-04-20T00:53:54.432Z,7.20
2023-04-20T00:56:21.350Z,5.70
2023-04-20T00:58:48.200Z,5.70
2023-04-20T01:01:17.762Z,8.10
2023-04-20T01:03:46.801Z,6.80
2023-04-20T01:06:14.375Z,7.70
2023-04-20T01:08:51.276Z,5.80
2023-04-20T01:11:18.365Z,5.80
2023-04-20T01:13:45.227Z,5.80
2023-04-20T01:16:12.232Z,5.80
2023-04-20T01:18:46.596Z,5.80
2023-04-20T01:21:14.093Z,5.70
2023-04-20T01:23:41.001Z,8.30
2023-04-20T01:26:12.352Z,5.70
2023-04-20T01:28:39.207Z,5.70
2023-04-20T01:31:07.120Z,5.70
2023-04-20T01:33:34.350Z,5.70
2023-04-20T01:36:01.225Z,5.70
2023-04-20T01:38:30.836Z,8.40
2023-04-20T01:40:59.856Z,7.50
2023-04-20T01:43:27.710Z,5.70
2023-04-20T01:45:54.562Z,5.60
2023-04-20T01:48:21.420Z,5.70
2023-04-20T01:50:52.036Z,7.90
2023-04-20T01:53:19.127Z,6.70
2023-04-20T01:55:47.720Z,3.90
2023-04-20T01:58:14.788Z,6.10
2023-04-20T02:00:41.614Z,5.60
2023-04-20T02:03:08.762Z,5.60
2023-04-20T02:05:35.664Z,8.40
2023-04-20T02:08:02.519Z,5.60
2023-04-20T02:10:29.354Z,5.60
2023-04-20T02:12:56.248Z,3.90
2023-04-20T02:15:23.340Z,7.10
2023-04-20T02:17:52.195Z,5.60
2023-04-20T02:20:20.152Z,5.60
2023-04-20T02:22:47.029Z,5.60
2023-04-20T02:25:13.918Z,8.10
2023-04-20T02:27:40.830Z,7.40
2023-04-20T02:30:08.413Z,5.60
2023-04-20T02:32:35.375Z,5.60
2023-04-20T02:35:04.115Z,7.60
2023-04-20T02:37:31.192Z,5.60
2023-04-20T02:39:58.168Z,5.60
2023-04-20T02:42:27.208Z,8.30
2023-04-20T02:44:56.262Z,5.60
2023-04-20T02:47:23.230Z,6.60
2023-04-20T02:49:52.489Z,5.60
2023-04-20T02:52:19.461Z,7.80
2023-04-20T02:54:47.326Z,5.60
2023-04-20T02:57:14.276Z,8.40
2023-04-20T02:59:41.524Z,5.60
2023-04-20T03:02:15.213Z,5.50
2023-04-20T03:04:42.869Z,8.00
2023-04-20T03:07:20.523Z,5.50
2023-04-20T03:09:48.661Z,7.10
2023-04-20T03:12:44.058Z,5.60
2023-04-20T03:15:40.022Z,5.60
2023-04-20T03:18:22.116Z,5.50
2023-04-20T03:20:49.138Z,5.50
2023-04-20T03:23:16.119Z,5.50
2023-04-20T03:25:43.665Z,5.50
2023-04-20T03:28:33.288Z,6.60
2023-04-20T03:31:01.666Z,5.50
2023-04-20T03:33:30.348Z,5.50
2023-04-20T03:35:57.417Z,5.70
2023-04-20T03:38:24.226Z,5.50
2023-04-20T03:40:52.087Z,7.30
2023-04-20T03:43:19.024Z,6.80
2023-04-20T03:45:46.553Z,7.80
2023-04-20T03:48:17.126Z,7.00
2023-04-20T03:50:43.935Z,5.50
2023-04-20T03:53:10.960Z,5.50
2023-04-20T03:55:37.751Z,5.50
2023-04-20T03:58:08.685Z,5.50
2023-04-20T04:00:45.289Z,5.50
2023-04-20T04:03:14.273Z,8.50
2023-04-20T04:05:41.770Z,7.90
2023-04-20T04:08:08.700Z,7.90
2023-04-20T04:10:36.208Z,7.60
2023-04-20T04:13:03.905Z,5.40
2023-04-20T04:15:32.228Z,7.80
2023-04-20T04:18:03.877Z,5.40
2023-04-20T04:20:32.733Z,5.40
2023-04-20T04:23:00.326Z,5.40
2023-04-20T04:25:41.295Z,6.30
2023-04-20T04:28:10.738Z,5.40
2023-04-20T04:30:43.999Z,5.40
2023-04-20T04:33:14.542Z,5.30
2023-04-20T04:35:45.581Z,5.30
2023-04-20T04:38:14.112Z,5.40
2023-04-20T04:40:45.969Z,5.30
2023-04-20T04:43:13.486Z,5.40
2023-04-20T04:45:47.389Z,5.40
2023-04-20T04:48:14.627Z,5.90
2023-04-20T04:50:41.675Z,7.60
2023-04-20T04:53:08.548Z,6.80
2023-04-20T04:55:35.366Z,7.50
2023-04-20T04:58:02.734Z,5.40
2023-04-20T05:00:29.592Z,5.40
2023-04-20T05:03:03.970Z,8.40
2023-04-20T05:05:33.429Z,5.40
2023-04-20T05:08:00.453Z,5.40
2023-04-20T05:10:27.270Z,7.10
2023-04-20T05:12:54.164Z,5.40
2023-04-20T05:15:20.963Z,7.10
2023-04-20T05:17:49.806Z,5.50
2023-04-20T05:20:16.845Z,5.50
2023-04-20T05:22:43.687Z,5.50
2023-04-20T05:25:12.608Z,7.70
2023-04-20T05:27:40.665Z,5.50
2023-04-20T05:30:19.558Z,6.60
2023-04-20T05:32:50.974Z,5.50
2023-04-20T05:35:19.256Z,7.50
2023-04-20T05:37:47.571Z,5.60
2023-04-20T05:40:15.512Z,5.60
2023-04-20T05:42:42.394Z,7.00
2023-04-20T05:45:09.930Z,8.20
2023-04-20T05:47:36.774Z,5.60
2023-04-20T05:50:04.098Z,6.90
2023-04-20T05:52:30.898Z,5.60
2023-04-20T05:54:57.687Z,7.80
2023-04-20T05:57:24.670Z,5.70
2023-04-20T05:59:51.598Z,5.70
2023-04-20T06:02:18.584Z,5.70
2023-04-20T06:04:45.705Z,7.90
2023-04-20T06:07:12.634Z,7.30
2023-04-20T06:09:39.509Z,5.80
2023-04-20T06:12:06.529Z,7.10
2023-04-20T06:14:33.448Z,5.90
2023-04-20T06:17:00.641Z,7.50
2023-04-20T06:19:27.668Z,7.40
2023-04-20T06:21:54.442Z,6.00
2023-04-20T06:24:21.261Z,8.00
2023-04-20T06:26:48.077Z,6.00
2023-04-20T06:29:14.918Z,5.60
2023-04-20T06:31:41.958Z,7.40
2023-04-20T06:34:08.850Z,5.90
2023-04-20T06:36:35.920Z,5.90
2023-04-20T06:39:02.757Z,5.90
2023-04-20T06:41:29.578Z,5.90
2023-04-20T06:43:56.383Z,7.20
2023-04-20T06:46:23.243Z,7.70
2023-04-20T06:48:50.073Z,5.90
2023-04-20T06:51:16.867Z,8.10
2023-04-20T06:53:43.771Z,7.60
2023-04-20T06:56:11.456Z,6.00
2023-04-20T06:58:38.314Z,8.50
2023-04-20T07:01:05.366Z,6.00
2023-04-20T07:03:32.352Z,6.00
2023-04-20T07:05:59.208Z,8.10
2023-04-20T07:08:26.137Z,7.10
2023-04-20T07:10:52.988Z,6.20
2023-04-20T07:13:19.791Z,6.20
2023-04-20T07:15:46.684Z,6.30
2023-04-20T07:18:13.518Z,6.30
2023-04-20T07:20:40.454Z,8.10
2023-04-20T07:23:07.355Z,6.20
2023-04-20T07:25:34.212Z,8.50
2023-04-20T07:28:01.024Z,8.30
2023-04-20T07:30:27.906Z,8.00
2023-04-20T07:32:54.852Z,6.20
2023-04-20T07:35:22.020Z,6.20
2023-04-20T07:37:48.864Z,6.20
2023-04-20T07:40:16.958Z,6.20
2023-04-20T07:42:43.784Z,6.30
2023-04-20T07:45:11.277Z,8.10
2023-04-20T07:47:38.390Z,6.30
2023-04-20T07:50:06.722Z,6.30
2023-04-20T07:52:33.858Z,6.30
2023-04-20T07:55:00.840Z,7.20
2023-04-20T07:57:28.590Z,8.50
2023-04-20T07:59:55.490Z,6.30
2023-04-20T08:02:22.420Z,6.30
2023-04-20T08:04:50.170Z,6.20
2023-04-20T08:07:17.997Z,8.30
2023-04-20T08:09:44.916Z,7.10
2023-04-20T08:12:11.758Z,8.10
2023-04-20T08:14:38.586Z,6.10
2023-04-20T08:17:05.578Z,7.00
2023-04-20T08:19:32.473Z,8.10
2023-04-20T08:22:00.636Z,5.90
2023-04-20T08:24:28.284Z,6.60
2023-04-20T08:26:55.132Z,7.70
2023-04-20T08:29:22.019Z,7.70
2023-04-20T08:31:50.031Z,7.60
2023-04-20T08:34:18.265Z,5.80
2023-04-20T08:36:45.271Z,8.20
2023-04-20T08:39:13.614Z,5.80
2023-04-20T08:41:40.513Z,5.80
2023-04-20T08:44:07.703Z,5.80
2023-04-20T08:46:34.920Z,8.00
2023-04-20T08:49:05.098Z,8.20
2023-04-20T08:51:32.756Z,7.90
2023-04-20T08:54:08.777Z,6.30
2023-04-20T08:56:36.682Z,5.80
2023-04-20T08:59:05.659Z,5.70
2023-04-20T09:01:36.147Z,5.70
2023-04-20T09:04:04.281Z,5.70
2023-04-20T09:06:31.586Z,5.70
2023-04-20T09:08:58.465Z,5.70
2023-04-20T09:11:26.370Z,7.30
2023-04-20T09:14:06.852Z,7.50
2023-04-20T09:16:34.917Z,5.70
2023-04-20T09:19:01.753Z,7.50
2023-04-20T09:21:28.759Z,8.00
2023-04-20T09:24:08.234Z,7.50
2023-04-20T09:26:35.768Z,5.80
2023-04-20T09:29:03.175Z,7.10
2023-04-20T09:31:30.075Z,5.80
2023-04-20T09:34:01.570Z,8.00
2023-04-20T09:37:00.891Z,5.90
2023-04-20T09:39:28.169Z,5.90
2023-04-20T09:41:55.143Z,5.90
2023-04-20T09:44:21.944Z,8.30
2023-04-20T09:46:48.777Z,5.80
2023-04-20T09:49:15.649Z,5.70
2023-04-20T09:51:46.284Z,8.40
2023-04-20T09:54:13.630Z,5.60
2023-04-20T09:56:40.671Z,6.60
2023-04-20T09:59:08.001Z,5.60
2023-04-20T10:01:36.551Z,5.70
2023-04-20T10:04:06.722Z,8.40
2023-04-20T10:06:34.685Z,5.80
2023-04-20T10:09:02.366Z,8.50
2023-04-20T10:11:40.454Z,6.00
2023-04-20T10:14:20.033Z,6.00
2023-04-20T10:16:58.176Z,6.10
2023-04-20T10:19:24.966Z,7.40
2023-04-20T10:21:51.944Z,7.40
2023-04-20T10:24:31.223Z,6.10
2023-04-20T10:26:58.433Z,6.10
2023-04-20T10:29:31.240Z,6.20
2023-04-20T10:31:58.000Z,6.20
2023-04-20T10:34:31.619Z,6.20
2023-04-20T10:37:14.186Z,9.00
2023-04-20T10:39:45.157Z,6.30
2023-04-20T10:42:11.990Z,6.40
2023-04-20T10:44:51.984Z,6.50
2023-04-20T10:47:29.540Z,6.50
2023-04-20T10:50:09.429Z,6.50
2023-04-20T10:52:37.403Z,6.40
2023-04-20T10:55:04.865Z,6.40
2023-04-20T10:57:31.837Z,6.40
2023-04-20T10:59:58.996Z,8.60
2023-04-20T11:02:26.360Z,8.50
2023-04-20T11:04:53.931Z,9.00
2023-04-20T11:07:21.015Z,8.70
2023-04-20T11:09:54.802Z,6.60
2023-04-20T11:12:21.617Z,7.90
2023-04-20T11:15:05.275Z,6.60
2023-04-20T11:17:33.079Z,6.60
2023-04-20T11:20:14.320Z,6.70
2023-04-20T11:22:42.130Z,6.80
2023-04-20T11:25:10.753Z,7.00
2023-04-20T11:27:38.520Z,7.10
2023-04-20T11:30:06.088Z,9.10
2023-04-20T11:32:33.324Z,7.30
2023-04-20T11:35:08.090Z,7.30
2023-04-20T11:37:48.945Z,7.40
2023-04-20T11:40:15.841Z,7.40
2023-04-20T11:42:43.059Z,7.50
2023-04-20T11:45:11.634Z,7.50
2023-04-20T11:47:40.844Z,7.60
2023-04-20T11:50:09.277Z,9.80
2023-04-20T11:52:36.139Z,7.80
2023-04-20T11:55:02.950Z,10.30
2023-04-20T11:57:29.787Z,8.10
2023-04-20T11:59:56.645Z,8.20
2023-04-20T12:02:23.594Z,9.40
2023-04-20T12:04:50.675Z,8.50
2023-04-20T12:07:17.545Z,11.10
2023-04-20T12:09:44.505Z,10.70
2023-04-20T12:12:11.338Z,8.60
2023-04-20T12:14:38.115Z,10.00
2023-04-20T12:17:05.106Z,11.00
2023-04-20T12:19:31.983Z,8.60
2023-04-20T12:21:58.801Z,8.70
2023-04-20T12:24:25.833Z,11.10
2023-04-20T12:26:52.632Z,8.90
2023-04-20T12:29:19.700Z,9.00
2023-04-20T12:31:46.889Z,10.20
2023-04-20T12:34:13.786Z,10.80
2023-04-20T12:36:40.945Z,9.30
2023-04-20T12:39:07.709Z,10.00
2023-04-20T12:41:34.584Z,12.20
2023-04-20T12:44:04.409Z,11.90
2023-04-20T12:46:33.008Z,9.90
2023-04-20T12:48:59.816Z,12.40
2023-04-20T12:51:27.231Z,11.00
2023-04-20T12:53:54.092Z,10.10
2023-04-20T12:56:21.663Z,12.90
2023-04-20T12:58:48.485Z,10.40
2023-04-20T13:01:15.317Z,10.30
2023-04-20T13:03:42.537Z,12.30
2023-04-20T13:06:12.967Z,12.50
2023-04-20T13:08:41.388Z,10.00
2023-04-20T13:11:09.005Z,9.90
2023-04-20T13:13:35.819Z,9.80
2023-04-20T13:16:02.798Z,10.60
2023-04-20T13:18:29.579Z,9.60
2023-04-20T13:20:56.348Z,9.60
2023-04-20T13:23:23.190Z,11.10
2023-04-20T13:25:50.289Z,12.00
2023-04-20T13:28:17.120Z,9.70
2023-04-20T13:30:43.985Z,9.90
2023-04-20T13:33:11.078Z,10.00
2023-04-20T13:35:37.957Z,11.50
2023-04-20T13:38:05.100Z,9.90
2023-04-20T13:40:32.069Z,11.10
2023-04-20T13:42:58.886Z,10.10
2023-04-20T13:45:25.797Z,12.40
2023-04-20T13:47:52.715Z,10.10
2023-04-20T13:50:19.487Z,10.10
2023-04-20T13:52:46.299Z,11.60
2023-04-20T13:55:13.164Z,10.70
2023-04-20T13:57:39.970Z,10.20
2023-04-20T14:00:08.123Z,10.10
2023-04-20T14:02:35.702Z,10.00
2023-04-20T14:05:04.035Z,11.30
2023-04-20T14:07:31.088Z,9.90
2023-04-20T14:09:59.850Z,11.20
2023-04-20T14:12:30.212Z,9.90
2023-04-20T14:14:57.426Z,9.70
2023-04-20T14:17:24.419Z,11.20
2023-04-20T14:19:51.272Z,10.50
2023-04-20T14:22:18.113Z,9.50
2023-04-20T14:24:48.686Z,9.30
2023-04-20T14:27:15.563Z,10.90
2023-04-20T14:29:42.416Z,9.20
2023-04-20T14:32:09.232Z,9.20
2023-04-20T14:34:36.036Z,10.50
2023-04-20T14:37:02.824Z,9.10
2023-04-20T14:39:29.692Z,11.40
2023-04-20T14:41:56.539Z,9.30
2023-04-20T14:44:23.359Z,9.00
2023-04-20T14:46:50.463Z,10.70
2023-04-20T14:49:17.273Z,9.10
2023-04-20T14:51:44.069Z,9.10
2023-04-20T14:54:11.049Z,9.10
2023-04-20T14:56:37.973Z,8.70
2023-04-20T14:59:04.836Z,10.00
2023-04-20T15:01:31.782Z,10.40
2023-04-20T15:03:58.799Z,9.60
2023-04-20T15:06:25.794Z,9.20
2023-04-20T15:08:56.409Z,10.00
2023-04-20T15:11:23.259Z,9.10
2023-04-20T15:13:51.965Z,9.00
2023-04-20T15:16:19.071Z,9.00
2023-04-20T15:18:46.502Z,10.20
2023-04-20T15:21:13.574Z,11.50
2023-04-20T15:23:40.534Z,12.60
2023-04-20T15:26:08.141Z,10.60
2023-04-20T15:28:35.104Z,13.70
2023-04-20T15:31:01.953Z,11.90
2023-04-20T15:33:28.803Z,12.40
2023-04-20T15:35:55.623Z,13.20
2023-04-20T15:38:22.422Z,13.90
2023-04-20T15:40:51.217Z,13.60
2023-04-20T15:43:18.012Z,15.80
2023-04-20T15:45:45.038Z,13.90
2023-04-20T15:48:11.897Z,14.10
2023-04-20T15:50:38.839Z,15.40
2023-04-20T15:53:05.659Z,13.30
2023-04-20T15:55:34.642Z,12.90
2023-04-20T15:58:01.519Z,12.30
2023-04-20T16:00:28.583Z,13.40
2023-04-20T16:02:55.608Z,12.30
2023-04-20T16:05:22.864Z,13.20
2023-04-20T16:07:49.718Z,10.50
2023-04-20T16:10:16.635Z,12.20
2023-04-20T16:12:43.521Z,10.10
2023-04-20T16:15:10.497Z,9.80
2023-04-20T16:17:37.520Z,9.60
2023-04-20T16:20:05.307Z,9.70
2023-04-20T16:22:32.162Z,9.90
2023-04-20T16:24:59.074Z,11.20
2023-04-20T16:27:26.815Z,12.20
2023-04-20T16:29:53.631Z,10.70
2023-04-20T16:32:20.622Z,12.90
2023-04-20T16:34:47.509Z,11.30
2023-04-20T16:37:14.330Z,11.10
2023-04-20T16:39:41.136Z,13.20
2023-04-20T16:42:08.001Z,12.30
2023-04-20T16:44:34.801Z,10.20
2023-04-20T16:47:02.154Z,12.30
2023-04-20T16:49:29.211Z,10.30
2023-04-20T16:51:57.444Z,10.90
2023-04-20T16:54:24.271Z,13.60
2023-04-20T16:56:51.289Z,12.30
2023-04-20T16:59:18.116Z,13.00
2023-04-20T17:01:44.999Z,13.90
2023-04-20T17:04:12.048Z,15.10
2023-04-20T17:06:38.924Z,15.70
2023-04-20T17:09:07.124Z,16.50
2023-04-20T17:11:38.796Z,14.80
2023-04-20T17:14:08.623Z,14.90
2023-04-20T17:16:35.742Z,14.20
2023-04-20T17:19:03.558Z,16.30
2023-04-20T17:21:30.455Z,14.60
2023-04-20T17:23:57.431Z,14.30
2023-04-20T17:26:24.318Z,13.70
2023-04-20T17:28:51.193Z,13.10
2023-04-20T17:31:18.001Z,12.60
2023-04-20T17:33:45.089Z,13.00
2023-04-20T17:36:11.965Z,11.80
2023-04-20T17:38:38.774Z,11.80
2023-04-20T17:41:05.775Z,11.00
2023-04-20T17:43:32.791Z,11.80
2023-04-20T17:46:00.773Z,10.10
2023-04-20T17:48:27.618Z,10.60
2023-04-20T17:50:54.591Z,11.40
2023-04-20T17:53:21.933Z,10.30
2023-04-20T17:55:48.773Z,10.10
2023-04-20T17:58:16.996Z,8.60
2023-04-20T18:00:44.234Z,8.40
2023-04-20T18:03:11.995Z,8.30
2023-04-20T18:05:38.869Z,9.40
2023-04-20T18:08:05.836Z,8.30
2023-04-20T18:10:34.080Z,10.00
2023-04-20T18:13:00.967Z,8.20
2023-04-20T18:15:27.907Z,8.70
2023-04-20T18:17:54.786Z,7.60
2023-04-20T18:20:21.707Z,9.60
2023-04-20T18:22:50.346Z,7.40
2023-04-20T18:25:18.892Z,7.30
2023-04-20T18:27:46.066Z,8.60
2023-04-20T18:30:13.916Z,7.20
2023-04-20T18:32:40.914Z,7.10
2023-04-20T18:35:08.149Z,9.80
2023-04-20T18:37:35.001Z,7.00
2023-04-20T18:40:01.896Z,6.90
2023-04-20T18:42:28.763Z,7.70
2023-04-20T18:44:55.994Z,6.80
2023-04-20T18:47:24.624Z,6.80
2023-04-20T18:49:51.532Z,7.40
2023-04-20T18:52:19.275Z,7.90
2023-04-20T18:54:46.842Z,6.60
2023-04-20T18:57:13.763Z,6.40
2023-04-20T18:59:40.672Z,5.80
2023-04-20T19:02:07.659Z,8.40
2023-04-20T19:04:36.281Z,6.50
2023-04-20T19:07:03.216Z,6.50
2023-04-20T19:09:30.087Z,6.30
2023-04-20T19:11:58.511Z,6.30
2023-04-20T19:14:25.381Z,9.30
2023-04-20T19:16:52.260Z,6.30
2023-04-20T19:19:19.105Z,6.20
2023-04-20T19:21:45.894Z,6.20
2023-04-20T19:24:12.684Z,6.20
2023-04-20T19:26:39.512Z,6.10
2023-04-20T19:29:06.321Z,6.10
2023-04-20T19:31:37.585Z,6.10
2023-04-20T19:34:04.447Z,7.90
2023-04-20T19:36:32.249Z,8.00
2023-04-20T19:38:59.319Z,5.90
2023-04-20T19:41:26.292Z,5.90
2023-04-20T19:43:53.256Z,5.90
2023-04-20T19:46:21.475Z,5.90
2023-04-20T19:48:48.420Z,5.90
2023-04-20T19:51:15.446Z,6.80
2023-04-20T19:53:42.758Z,5.90
2023-04-20T19:56:09.565Z,5.80
2023-04-20T19:58:36.396Z,5.80
2023-04-20T20:01:04.061Z,8.60
2023-04-20T20:03:31.137Z,5.70
2023-04-20T20:05:58.045Z,5.70
2023-04-20T20:08:24.829Z,6.60
2023-04-20T20:10:51.630Z,5.70
2023-04-20T20:13:18.411Z,5.60
2023-04-20T20:15:45.329Z,5.60
2023-04-20T20:18:21.670Z,5.50
2023-04-20T20:20:59.292Z,5.50
2023-04-20T20:23:28.553Z,5.50
2023-04-20T20:25:55.341Z,5.40
2023-04-20T20:28:22.184Z,5.40
2023-04-20T20:30:49.006Z,5.40
2023-04-20T20:33:15.826Z,5.60
2023-04-20T20:35:42.797Z,5.40
2023-04-20T20:38:10.843Z,6.70
2023-04-20T20:40:38.029Z,6.80
2023-04-20T20:43:05.133Z,5.20
2023-04-20T20:45:32.451Z,5.10
2023-04-20T20:47:59.672Z,5.10
2023-04-20T20:50:27.885Z,4.90
2023-04-20T20:52:54.807Z,5.00
2023-04-20T20:55:21.906Z,4.90
2023-04-20T20:57:48.701Z,4.80
2023-04-20T21:00:16.188Z,4.80
2023-04-20T21:02:43.268Z,4.80
2023-04-20T21:05:10.236Z,4.80
2023-04-20T21:07:37.112Z,4.70
2023-04-20T21:10:04.229Z,4.60
2023-04-20T21:12:31.103Z,4.60
2023-04-20T21:14:57.957Z,4.50
2023-04-20T21:17:24.907Z,4.50
2023-04-20T21:19:51.987Z,4.40
2023-04-20T21:22:20.167Z,4.40
2023-04-20T21:24:46.986Z,4.30
2023-04-20T21:27:13.813Z,4.30
2023-04-20T21:29:40.591Z,4.20
2023-04-20T21:32:07.457Z,4.20
2023-04-20T21:34:34.435Z,4.00
2023-04-20T21:37:05.246Z,5.60
2023-04-20T21:39:32.422Z,4.00
2023-04-20T21:41:59.864Z,3.90
2023-04-20T21:44:26.960Z,3.80
2023-04-20T21:46:53.774Z,3.80
2023-04-20T21:49:20.859Z,3.80
2023-04-20T21:51:47.613Z,3.80
2023-04-20T21:54:14.434Z,3.80
2023-04-20T21:56:41.315Z,3.80
2023-04-20T21:59:08.113Z,3.70
2023-04-20T22:01:35.033Z,4.50
2023-04-20T22:04:02.246Z,6.20
2023-04-20T22:06:29.180Z,3.70
2023-04-20T22:08:56.553Z,3.70
2023-04-20T22:11:23.421Z,3.60
2023-04-20T22:13:50.410Z,3.60
2023-04-20T22:16:18.069Z,3.60
2023-04-20T22:18:44.904Z,3.50
2023-04-20T22:21:11.674Z,3.50
2023-04-20T22:23:38.466Z,3.50
2023-04-20T22:26:05.354Z,3.40
2023-04-20T22:28:32.127Z,3.40
2023-04-20T22:30:59.003Z,4.60
2023-04-20T22:33:25.927Z,3.30
2023-04-20T22:35:52.826Z,3.30
2023-04-20T22:38:19.693Z,3.20
2023-04-20T22:40:46.500Z,3.00
2023-04-20T22:43:13.298Z,3.20
2023-04-20T22:45:40.278Z,3.10
2023-04-20T22:48:07.081Z,3.10
2023-04-20T22:50:35.205Z,3.10
2023-04-20T22:53:01.982Z,5.20
2023-04-20T22:55:28.764Z,5.60
2023-04-20T22:57:55.621Z,3.00
2023-04-20T23:00:22.474Z,3.00
2023-04-20T23:02:49.824Z,3.30
2023-04-20T23:05:20.345Z,4.30
2023-04-20T23:07:47.781Z,5.60
2023-04-20T23:10:18.966Z,2.90
2023-04-20T23:12:46.850Z,4.70
2023-04-20T23:15:13.990Z,2.90
2023-04-20T23:17:40.931Z,2.90
2023-04-20T23:20:13.674Z,2.90
2023-04-20T23:22:40.776Z,2.90
2023-04-20T23:25:09.632Z,5.10
2023-04-20T23:27:36.646Z,0.80
2023-04-20T23:30:03.670Z,2.80
2023-04-20T23:32:30.677Z,2.80
2023-04-20T23:34:57.655Z,2.70
2023-04-20T23:37:24.511Z,2.70
2023-04-20T23:39:51.298Z,2.70
2023-04-20T23:42:18.067Z,2.60
2023-04-20T23:44:44.851Z,2.60
2023-04-20T23:47:11.686Z,2.70
2023-04-20T23:49:38.545Z,2.60
2023-04-20T23:52:05.634Z,2.60
2023-04-20T23:54:33.322Z,4.90
2023-04-20T23:57:00.272Z,2.60
2023-04-20T23:59:27.056Z,2.60
